Aransas Pass, Texas
Current Conditions -  °F | °C
As of 3:55 PM on Monday 20 Oct 2014 (Local Time) from KTFP Reporting Station
Moderate Rain Moderate Rain  
Wind Chill: 73°   Ceiling: 1200
Heat Index: 73°   Visibility: 5mi
Dew Point: 70°   Wind: 3mph
Humidity: 92%   Direction: 190°S
Pressure: 29.96"   Gusts: NA
Location:  27.9°N, 97.15°W
Report Text: KTFP 202055Z AUTO 19003KT 5SM RA SCT007 OVC012 23/21 A2996 RMK AO2 P0006 T02260212
Loading
Personal Weather Stations






























Interactive Weather Map
Tropical Storm Tracking
New forecast layout! Learn more

10-Day Weather Forecast

Advertisements
Track Severe Weather on mobile